TAF PHJR
PHJR 090527Z 0906/1006 07005KT P6SM BKN050 FM092000 10011KT P6SM FEW025 SCT050 FM100300 05005KT P6SM FEW030 FEW050=
METAR PHJR
WC PHJR
WS PHJR
WV PHJR